• Join FlightAware (Why Join?)
  • Login
  • US Flag 
04:52AM EST


 

Airport Tracker/Info


-or-


 

Live Flight TrackerFlight Track Log ✈ EJA922 ✈ 28-Jan-2014 ✈ KOAK - KPBI

Flight Track Log - Related Links

Times and Time Zones

All times are in EST time to prevent confusion due to time zone crossing. See the EJA922 flight status page for this flight to view local times or setup timezone preferences in your user account.

Time Position Orientation Groundspeed Altitude Reporting Facility
EST Latitude Longitude Course Direction KTS MPH feet Rate Location/Type
03:27PM 37.7333 -122.2667 132° Southeast 200 230 2,500  Level Northern Cal TRACON
03:28PM 37.7667 -122.3333 302° West 215 247 5,600 2,650 Climbing Northern Cal TRACON
03:29PM 37.7333 -122.4167 243° Southwest 258 297 7,800 1,800 Climbing Northern Cal TRACON
03:30PM 37.7181 -122.4336 221° Southwest 272 313 8,300 1,826 Climbing Oakland Center
03:31PM 37.6144 -122.4494 187° South 323 372 10,600 1,951 Climbing Oakland Center
03:32PM 37.5108 -122.4311 172° South 374 430 12,300 1,707 Climbing Oakland Center
03:33PM 37.0196 -121.7841 132° Southeast  Level FlightAware Approximate
03:33PM 37.4033 -122.4139 173° South 387 445 14,100  Level Oakland Center
03:34PM 37.3086 -122.3436 149° Southeast 403 464 16,300 1,770 Climbing Oakland Center
03:35PM 37.2397 -122.2314 128° Southeast 406 467 17,700 1,317 Climbing Oakland Center
03:36PM 37.1658 -122.1158 129° Southeast 423 487 19,000 1,366 Climbing Oakland Center
03:37PM 37.0903 -121.9953 128° Southeast 438 504 20,500 1,377 Climbing Oakland Center
03:38PM 37.0131 -121.8722 128° Southeast 449 517 21,800 1,317 Climbing Oakland Center
03:39PM 36.9317 -121.7514 130° Southeast 455 524 23,200 1,512 Climbing Oakland Center
03:40PM 36.8342 -121.5997 129° Southeast 465 535 24,900 1,317 Climbing Oakland Center
03:41PM 36.7536 -121.4750 129° Southeast 475 547 25,900 1,024 Climbing Oakland Center
03:42PM 36.6675 -121.3414 129° Southeast 492 566 27,000 984 Climbing Oakland Center
03:43PM 36.5800 -121.2061 129° Southeast 500 575 27,900 878 Climbing Oakland Center
03:44PM 36.4894 -121.0664 129° Southeast 515 593 28,800 927 Climbing Oakland Center
03:45PM 36.3975 -120.9231 129° Southeast 528 608 29,800 927 Climbing Oakland Center
03:46PM 36.3044 -120.7786 129° Southeast 535 616 30,700 1,317 Climbing Oakland Center
03:47PM 36.1894 -120.6064 130° Southeast 539 620 32,500 1,805 Climbing Oakland Center
03:48PM 36.0958 -120.4619 129° Southeast 536 617 34,400 1,707 Climbing Oakland Center
03:49PM 36.0019 -120.3200 129° Southeast 533 613 36,000 1,561 Climbing Oakland Center
03:50PM 35.9072 -120.1775 129° Southeast 534 615 37,600 1,415 Climbing Oakland Center
03:51PM 35.8131 -120.0369 130° Southeast 531 611 38,900 683 Climbing Oakland Center
03:52PM 35.7164 -119.8928 130° Southeast 538 619 39,000 49 Climbing Oakland Center
03:53PM 35.6136 -119.7414 130° Southeast 565 650 39,000  Level Oakland Center
03:54PM 35.5094 -119.5872 130° Southeast 581 669 39,000  Level Oakland Center
03:55PM 35.4050 -119.4336 130° Southeast 584 672 39,000  Level Oakland Center
03:56PM 35.3000 -119.2817 130° Southeast 583 671 39,000 244 Level Oakland Center
03:57PM 35.1961 -119.1292 130° Southeast 583 671 39,500 923 Climbing Oakland Center
03:59PM 35.0744 -118.9533 130° Southeast 563 648 41,000 687 Climbing Los Angeles Center
04:00PM 34.9733 -118.8086 130° Southeast 560 644 41,000  Level Los Angeles Center
04:01PM 34.8606 -118.6475 130° Southeast 564 649 41,000  Level Los Angeles Center
04:02PM 34.7581 -118.5014 130° Southeast 566 651 41,000  Level Los Angeles Center
04:03PM 34.6425 -118.3381 131° Southeast 571 657 41,000  Level Los Angeles Center
04:04PM 34.5506 -118.2078 131° Southeast 571 657 41,000  Level Los Angeles Center
04:05PM 34.4394 -118.0461 130° Southeast 573 659 41,000  Level Los Angeles Center
04:06PM 34.3844 -117.8694 111° Southeast 571 657 41,000  Level Los Angeles Center
04:07PM 34.3386 -117.6669 105° East 555 639 41,000  Level Los Angeles Center
04:08PM 34.2950 -117.4856 106° East 560 644 41,000  Level Los Angeles Center
04:09PM 34.2522 -117.3047 106° East 560 644 41,000  Level Los Angeles Center
04:10PM 34.2075 -117.1189 106° East 558 642 41,000  Level Los Angeles Center
04:11PM 34.1642 -116.9394 106° East 560 644 41,000  Level Los Angeles Center
04:12PM 34.1186 -116.7442 106° East 556 640 41,000  Level Los Angeles Center
04:13PM 34.0742 -116.5656 107° East 554 638 41,000  Level Los Angeles Center
04:14PM 34.0300 -116.3853 106° East 558 642 41,000 -48 Level Los Angeles Center
04:15PM 33.9764 -116.1722 107° East 554 638 40,900  Descending Los Angeles Center
04:16PM 33.9328 -115.9944 106° East 553 636 41,000 48 Climbing Los Angeles Center
04:17PM 33.8878 -115.8144 107° East 560 644 41,000  Level Los Angeles Center
04:18PM 33.8425 -115.6392 107° East 550 633 41,000  Level Los Angeles Center
04:19PM 33.7956 -115.4597 107° East 560 644 41,000  Level Los Angeles Center
04:20PM 33.7500 -115.2825 107° East 557 641 41,000  Level Los Angeles Center
04:21PM 33.6950 -115.0697 107° East 554 638 41,000  Level Los Angeles Center
04:22PM 33.6492 -114.8933 107° East 554 638 41,000  Level Los Angeles Center
04:23PM 33.6117 -114.7150 104° East 553 636 41,000  Level Los Angeles Center
04:24PM 33.5822 -114.5364 101° East 548 631 41,000  Level Los Angeles Center
04:25PM 33.5514 -114.3589 102° East 545 627 41,000  Level Los Angeles Center
04:26PM 33.5314 -114.2339 101° East 543 625 41,000  Level Albuquerque Center
04:27PM 33.4942 -114.0194 102° East 547 629 41,000  Level Albuquerque Center
04:28PM 33.4603 -113.8436 103° East 544 626 41,000  Level Albuquerque Center
04:29PM 33.4283 -113.6658 102° East 544 626 41,000  Level Albuquerque Center
04:30PM 33.3942 -113.4883 103° East 546 628 41,000  Level Albuquerque Center
04:31PM 33.3611 -113.3106 103° East 547 629 41,000  Level Albuquerque Center
04:32PM 33.3272 -113.1311 103° East 549 632 41,000  Level Albuquerque Center
04:33PM 33.2936 -112.9533 103° East 548 631 41,000  Level Albuquerque Center
04:34PM 33.2594 -112.7767 103° East 545 627 41,000  Level Albuquerque Center
04:36PM 33.2181 -112.5683 103° East 544 626 41,000  Level Albuquerque Center
04:37PM 33.1825 -112.3853 103° East 546 628 41,000  Level Albuquerque Center
04:38PM 33.1483 -112.2100 103° East 546 628 41,000  Level Albuquerque Center
04:39PM 33.1133 -112.0350 103° East 547 629 41,000  Level Albuquerque Center
04:40PM 33.0786 -111.8608 103° East 545 627 41,000  Level Albuquerque Center
04:41PM 33.0433 -111.6847 103° East 548 631 41,000  Level Albuquerque Center
04:42PM 33.0078 -111.5114 104° East 545 627 41,000  Level Albuquerque Center
04:43PM 32.9656 -111.3028 104° East 544 626 41,000  Level Albuquerque Center
04:44PM 32.9300 -111.1294 104° East 543 625 41,000  Level Albuquerque Center
04:45PM 32.8936 -110.9553 104° East 543 625 41,000  Level Albuquerque Center
04:46PM 32.8575 -110.7811 104° East 545 627 41,000  Level Albuquerque Center
04:47PM 32.8200 -110.6083 104° East 542 624 41,000  Level Albuquerque Center
04:48PM 32.7833 -110.4347 104° East 542 624 41,000  Level Albuquerque Center
04:49PM 32.7372 -110.2261 105° East 544 626 41,000  Level Albuquerque Center
04:50PM 32.7014 -110.0536 104° East 544 626 41,000  Level Albuquerque Center
04:51PM 32.6622 -109.8817 105° East 543 625 41,000  Level Albuquerque Center
04:52PM 32.6236 -109.7097 105° East 543 625 41,000  Level Albuquerque Center
04:53PM 32.5850 -109.5350 105° East 547 629 41,000  Level Albuquerque Center
04:54PM 32.5464 -109.3647 105° East 544 626 41,000  Level Albuquerque Center
04:55PM 32.4997 -109.1575 105° East 546 628 41,000  Level Albuquerque Center
04:56PM 32.4619 -108.9858 105° East 547 629 41,000  Level Albuquerque Center
04:57PM 32.4222 -108.8125 105° East 549 632 41,000  Level Albuquerque Center
04:58PM 32.3833 -108.6414 105° East 546 628 41,000  Level Albuquerque Center
04:59PM 32.3439 -108.4706 105° East 544 626 41,000 -48 Level Albuquerque Center
05:00PM 32.2986 -108.2789 106° East 545 627 40,900  Descending Albuquerque Center
05:01PM 32.2592 -108.1067 105° East 546 628 41,000 48 Climbing Albuquerque Center
05:02PM 32.2183 -107.9347 106° East 546 628 41,000  Level Albuquerque Center
05:03PM 32.1689 -107.7269 106° East 550 633 41,000  Level Albuquerque Center
05:04PM 32.1278 -107.5550 106° East 551 634 41,000  Level Albuquerque Center
05:05PM 32.0869 -107.3825 106° East 553 636 41,000  Level Albuquerque Center
05:06PM 32.0461 -107.2100 106° East 553 636 41,000  Level Albuquerque Center
05:07PM 32.0044 -107.0378 106° East 553 636 41,000  Level Albuquerque Center
05:08PM 31.9622 -106.8658 106° East 553 636 41,000  Level Albuquerque Center
05:10PM 31.9106 -106.6586 106° East 555 639 41,000  Level Albuquerque Center
05:11PM 31.8653 -106.4806 107° East 561 646 41,000  Level Albuquerque Center
05:12PM 31.8231 -106.3031 106° East 564 649 41,000  Level Albuquerque Center
05:13PM 31.7772 -106.1281 107° East 561 646 41,000  Level Albuquerque Center
05:14PM 31.7333 -105.9519 106° East 561 646 41,000  Level Albuquerque Center
05:15PM 31.6886 -105.7750 107° East 564 649 41,000  Level Albuquerque Center
05:16PM 31.6442 -105.5969 106° East 567 652 41,000  Level Albuquerque Center
05:17PM 31.5908 -105.3828 106° East 569 655 41,000  Level Albuquerque Center
05:18PM 31.5453 -105.2078 107° East 562 647 41,000  Level Albuquerque Center
05:19PM 31.4994 -105.0281 107° East 568 654 41,000  Level Albuquerque Center
05:20PM 31.4536 -104.8486 107° East 570 656 41,000  Level Albuquerque Center
05:21PM 31.4075 -104.6700 107° East 571 657 41,000  Level Albuquerque Center
05:22PM 31.3619 -104.4917 107° East 570 656 41,000 -49 Level Albuquerque Center
05:23PM 31.3139 -104.3133 107° East 572 658 40,900  Descending Albuquerque Center
05:24PM 31.2675 -104.1358 107° East 571 657 41,000 48 Climbing Albuquerque Center
05:25PM 31.2203 -103.9586 107° East 571 657 41,000  Level Albuquerque Center
05:26PM 31.1583 -103.7536 109° East 561 646 41,000  Level Albuquerque Center
05:27PM 31.1158 -103.5806 106° East 567 652 41,000  Level Albuquerque Center
05:28PM 31.0681 -103.4064 108° East 564 649 41,000  Level Albuquerque Center
05:29PM 31.0211 -103.2358 108° East 557 641 41,000  Level Albuquerque Center
05:30PM 30.9767 -103.0678 107° East 548 631 41,000  Level Albuquerque Center
05:31PM 30.9383 -102.8608 102° East 554 638 41,000  Level Albuquerque Center
05:32PM 30.9225 -102.6847 96° East 553 636 41,000  Level Albuquerque Center
05:33PM 30.9039 -102.5097 97° East 552 635 41,000  Level Albuquerque Center
05:34PM 30.8864 -102.3347 97° East 552 635 41,000  Level Houston Center
05:35PM 30.8686 -102.1606 97° East 552 635 41,000  Level Houston Center
05:36PM 30.8497 -101.9858 97° East 552 635 41,000  Level Houston Center
05:37PM 30.8306 -101.8103 97° East 552 635 41,000  Level Houston Center
05:38PM 30.8150 -101.6344 96° East 552 635 41,000  Level Houston Center
05:39PM 30.7964 -101.4511 97° East 552 635 41,000  Level Houston Center
05:40PM 30.7789 -101.2708 96° East 555 639 41,000  Level Houston Center
05:41PM 30.7603 -101.0900 97° East 560 644 41,000  Level Houston Center
05:42PM 30.7397 -100.8725 96° East 562 647 41,000  Level Houston Center
05:43PM 30.7203 -100.6914 97° East 562 647 41,000  Level Houston Center
05:44PM 30.7008 -100.5092 97° East 563 648 41,000  Level Houston Center
05:45PM 30.6822 -100.3264 97° East 564 649 41,000  Level Houston Center
05:46PM 30.6628 -100.1442 97° East 565 650 41,000  Level Houston Center
05:47PM 30.6417 -99.9517 97° East 565 650 41,000  Level Houston Center
05:48PM 30.6225 -99.7806 97° East 565 650 41,000  Level Houston Center
05:49PM 30.6011 -99.5986 98° East 566 651 41,000  Level Houston Center
05:50PM 30.5814 -99.4169 97° East 566 651 41,000  Level Houston Center
05:52PM 30.5603 -99.2347 98° East 567 652 41,000  Level Houston Center
05:53PM 30.5367 -99.0350 98° East 572 658 41,000  Level Houston Center
05:54PM 30.5147 -98.8419 97° East 577 664 41,000  Level Houston Center
05:55PM 30.4931 -98.6606 98° East 580 667 41,000  Level Houston Center
05:56PM 30.4703 -98.4733 98° East 581 669 41,000  Level Houston Center
05:57PM 30.4472 -98.2833 98° East 586 674 41,000  Level Houston Center
05:58PM 30.4233 -98.0914 98° East 597 687 41,000  Level Houston Center
05:59PM 30.3950 -97.8669 98° East 600 690 41,000  Level Houston Center
06:00PM 30.3717 -97.6747 98° East 601 692 41,000  Level Houston Center
06:01PM 30.3467 -97.4803 98° East 608 700 41,000  Level Houston Center
06:02PM 30.3208 -97.2872 99° East 608 700 41,000  Level Houston Center
06:03PM 30.2961 -97.0892 98° East 613 705 41,000  Level Houston Center
06:04PM 30.2700 -96.8964 99° East 612 704 41,000  Level Houston Center
06:05PM 30.2436 -96.7011 99° East 612 704 41,000  Level Houston Center
06:06PM 30.2169 -96.5053 99° East 612 704 41,000  Level Houston Center
06:07PM 30.1897 -96.3106 99° East 612 704 41,000  Level Houston Center
06:08PM 30.1622 -96.1139 99° East 613 705 41,000  Level Houston Center
06:09PM 30.1342 -95.9136 99° East 613 705 41,000  Level Houston Center
06:10PM 30.1064 -95.7186 99° East 613 705 41,000  Level Houston Center
06:11PM 30.0789 -95.5244 99° East 613 705 41,000  Level Houston Center
06:12PM 30.0461 -95.3050 100° East 613 705 41,000  Level Houston Center
06:13PM 30.0186 -95.1100 99° East 614 707 41,000  Level Houston Center
06:14PM 29.9886 -94.9144 100° East 617 710 41,000  Level Houston Center
06:15PM 29.9556 -94.7050 100° East 618 711 41,000  Level Houston Center
06:16PM 29.9164 -94.5133 103° East 618 711 41,000  Level Houston Center
06:17PM 29.8756 -94.3219 104° East 618 711 41,000  Level Houston Center
06:18PM 29.8350 -94.1306 104° East 618 711 41,000  Level Houston Center
06:19PM 29.7939 -93.9400 104° East 618 711 41,000  Level Houston Center
06:20PM 29.7528 -93.7500 104° East 619 712 41,000  Level Houston Center
06:21PM 29.7114 -93.5592 104° East 619 712 41,000  Level Houston Center
06:22PM 29.6622 -93.3300 104° East 619 712 41,000  Level Houston Center
06:23PM 29.6197 -93.1392 104° East 619 712 41,000  Level Houston Center
06:24PM 29.5778 -92.9497 104° East 619 712 41,000  Level Houston Center
06:25PM 29.5350 -92.7606 105° East 619 712 41,000  Level Houston Center
06:26PM 29.4922 -92.5689 104° East 619 712 41,000  Level Houston Center
06:27PM 29.4486 -92.3786 105° East 621 715 41,000  Level Houston Center
06:28PM 29.4058 -92.1883 104° East 620 713 41,000  Level Houston Center
06:29PM 29.3536 -91.9583 105° East 620 713 41,000  Level Houston Center
06:30PM 29.3081 -91.7683 105° East 621 715 41,000  Level Houston Center
06:31PM 29.2711 -91.6033 104° East 621 715 41,000  Level Houston Center
06:32PM 29.2169 -91.3747 105° East 621 715 41,000  Level Houston Center
06:33PM 29.1714 -91.1831 105° East 623 717 41,000  Level Houston Center
06:34PM 29.1261 -90.9933 105° East 623 717 41,000  Level Houston Center
06:35PM 29.0811 -90.8036 105° East 623 717 41,000  Level Houston Center
06:36PM 29.0356 -90.6161 105° East 621 715 41,000  Level Houston Center
06:37PM 28.9897 -90.4272 105° East 621 715 41,000  Level Houston Center
06:38PM 28.9433 -90.2072 103° East 621 715 41,000  Level Houston Center
06:40PM 28.9092 -90.0458 104° East 621 715 41,000  Level Houston Center
06:41PM 28.8597 -89.8175 104° East 621 715 41,000  Level Houston Center
06:42PM 28.8181 -89.6267 104° East 622 716 41,000  Level Houston Center
06:43PM 28.7761 -89.4342 104° East 628 723 41,000  Level Houston Center
06:44PM 28.7336 -89.2467 104° East 621 715 41,000  Level Houston Center
06:45PM 28.6919 -89.0575 104° East 620 713 41,000  Level Houston Center
06:46PM 28.6503 -88.8708 104° East 617 710 41,000  Level Houston Center
06:47PM 28.6075 -88.6833 105° East 615 708 41,000  Level Houston Center
06:48PM 28.5636 -88.4942 105° East 617 710 41,000  Level Houston Center
06:49PM 28.5125 -88.2656 104° East 620 713 41,000  Level Houston Center
06:50PM 28.4703 -88.0850 105° East 620 713 41,000 -49 Level Houston Center
06:51PM 28.4256 -87.8900 105° East 618 711 40,900  Descending Houston Center
06:52PM 28.3789 -87.7100 106° East 617 710 41,000 49 Climbing Houston Center
06:53PM 28.3303 -87.5247 107° East 617 710 41,000  Level Houston Center
06:54PM 28.2817 -87.3372 106° East 617 710 41,000  Level Houston Center
06:55PM 28.2336 -87.1519 106° East 617 710 41,000  Level Houston Center
06:56PM 28.1858 -86.9667 106° East 617 710 41,000  Level Houston Center
06:57PM 28.1272 -86.7436 107° East 617 710 41,000  Level Houston Center
06:58PM 28.0783 -86.5592 107° East 617 710 41,000  Level Houston Center
06:59PM 28.0283 -86.3747 107° East 616 709 41,000  Level Houston Center
07:00PM 27.9797 -86.1889 106° East 616 709 41,000  Level Houston Center
07:01PM 27.9150 -85.9689 108° East 609 701 41,000  Level Jacksonville Center
07:02PM 27.8653 -85.7703 106° East 616 709 41,000  Level Jacksonville Center
07:03PM 27.8047 -85.5381 106° East 675 777 41,000  Level Miami Center
07:04PM 27.7514 -85.3514 108° East 637 733 41,000  Level Miami Center
07:05PM 27.6997 -85.1647 107° East 621 715 41,000  Level Miami Center
07:06PM 27.6436 -84.9806 109° East 621 715 41,000 -50 Level Miami Center
07:07PM 27.5956 -84.7947 106° East 621 715 40,900  Descending Miami Center
07:08PM 27.5411 -84.6086 108° East 616 709 41,000 50 Climbing Miami Center
07:09PM 27.4903 -84.4275 108° East 616 709 41,000  Level Miami Center
07:10PM 27.4372 -84.2439 108° East 616 709 41,000  Level Miami Center
07:11PM 27.3858 -84.0631 108° East 616 709 41,000  Level Miami Center
07:12PM 27.3344 -83.8800 107° East 616 709 41,000 -450 Level Miami Center
07:13PM 27.2806 -83.6994 109° East 616 709 40,100 -1,100 Descending Miami Center
07:14PM 27.2286 -83.5192 108° East 611 703 38,800 -1,300 Descending Miami Center
07:15PM 27.1742 -83.3386 109° East 611 703 37,500 -1,300 Descending Miami Center
07:16PM 27.1233 -83.1633 108° East 605 696 36,200 -1,300 Descending Miami Center
07:17PM 27.0725 -82.9881 108° East 600 690 34,900 -1,350 Descending Miami Center
07:18PM 27.0194 -82.8131 109° East 595 685 33,500 -1,600 Descending Miami Center
07:19PM 26.9681 -82.6356 108° East 595 685 31,700 -1,950 Descending Miami Center
07:20PM 26.9181 -82.4772 109° East 595 685 29,600 -2,100 Descending Miami Center
07:21PM 26.8661 -82.3047 109° East 590 679 27,500 -1,800 Descending Miami Center
07:22PM 26.8197 -82.1444 108° East 572 658 26,000 -1,900 Descending Miami Center
07:23PM 26.7714 -81.9867 109° East 554 638 23,700 -2,300 Descending Miami Center
07:24PM 26.7264 -81.8336 108° East 532 612 21,400 -2,300 Descending Miami Center
07:25PM 26.6875 -81.6925 107° East 500 575 19,100 -1,200 Descending Miami Center
07:26PM 26.7136 -81.5331 80° East 449 517 19,000 -750 Descending Miami Center
07:27PM 26.7425 -81.4042 76° East 465 535 17,600 -1,700 Descending Miami Center
07:28PM 26.7783 -81.2611 74° East 471 542 15,600 -2,150 Descending Miami Center
07:29PM 26.8119 -81.1111 76° East 466 536 13,300 -2,000 Descending Miami Center
07:30PM 26.8283 -80.9839 82° East 434 499 11,600 -1,550 Descending Miami Center
07:31PM 26.8397 -80.8747 83° East 378 435 10,200 -800 Descending Miami Center
07:32PM 26.8167 -80.7972 108° East 289 333 10,000 -100 Descending Miami Center
07:33PM 26.7858 -80.7078 111° Southeast 300 345 10,000 -650 Level Miami Center
07:34PM 26.7522 -80.6253 115° Southeast 305 351 8,700 -1,350 Descending Miami Center
07:35PM 26.7172 -80.5336 113° Southeast 300 345 7,300 -1,350 Descending Miami Center
07:36PM 26.6961 -80.4561 107° East 290 334 6,000 -1,650 Descending Miami Center
07:37PM 26.6922 -80.3631 93° East 278 320 4,000 -1,550 Descending Miami Center
07:38PM 26.6897 -80.2908 92° East 266 306 2,900 -1,000 Descending Miami Center
07:39PM 26.6850 -80.2233 94° East 220 253 2,000 -900 Descending Miami Center
07:41PM 26.6460 -80.1109 50° Northeast  Level FlightAware Approximate
07:48PM 26.6667 -80.0833 50° Northeast  Level FlightAware Approximate
07:49PM 26.6832 -80.0956 50° Northeast  Level Estimated
07:50PM 26.6832 -80.0956 50° Northeast  Level Estimated